Time;durP1;ratioP1;P1;durP2;ratioP2;P2;SDS_P1;SDS_P2;PMS_P1;PMS_P2;Temp;Humidity;BMP_temperature;BMP_pressure;BME280_temperature;BME280_humidity;BME280_pressure;Samples;Min_cycle;Max_cycle;Signal;HPM_P1;HPM_P2
2023/01/06 00:00:15;;;;;;;;;;;18.50;66.50;;;;;;4971199;28;964;-70
2023/01/06 00:02:41;;;;;;;;;;;18.50;66.50;;;;;;4972713;28;1359;-70
2023/01/06 00:05:06;;;;;;;;;;;18.50;66.50;;;;;;4973017;28;1335;-70
2023/01/06 00:07:32;;;;;;;;;;;18.50;66.50;;;;;;4972391;28;1898;-70
2023/01/06 00:09:57;;;;;;;;;;;18.50;66.50;;;;;;4971872;28;1156;-70
2023/01/06 00:12:25;;;;;;;;;;;18.50;66.60;;;;;;4971191;28;1296;-70
2023/01/06 00:14:51;;;;;;;;;;;18.50;66.60;;;;;;4971262;28;876;-70
2023/01/06 00:17:16;;;;;;;;;;;18.50;66.60;;;;;;4971030;28;1267;-70
2023/01/06 00:19:42;;;;;;;;;;;18.50;66.60;;;;;;4972031;28;938;-70
2023/01/06 00:22:07;;;;;;;;;;;18.50;66.60;;;;;;4972294;28;1271;-70
2023/01/06 00:24:33;;;;;;;;;;;18.50;66.60;;;;;;4972240;28;885;-70
2023/01/06 00:26:58;;;;;;;;;;;18.50;66.70;;;;;;4971848;28;1891;-70
2023/01/06 00:29:24;;;;;;;;;;;18.50;66.70;;;;;;4971801;28;953;-70
2023/01/06 00:31:49;;;;;;;;;;;18.50;66.70;;;;;;4972228;28;1635;-70
2023/01/06 00:34:15;;;;;;;;;;;18.50;66.70;;;;;;4971905;28;856;-70
2023/01/06 00:36:40;;;;;;;;;;;18.50;66.70;;;;;;4972082;28;994;-70
2023/01/06 00:39:06;;;;;;;;;;;18.50;66.70;;;;;;4971585;28;1305;-70
2023/01/06 00:44:15;;;;;;;;;;;18.40;66.70;;;;;;4971776;28;1320;-70
2023/01/06 00:46:41;;;;;;;;;;;18.50;66.70;;;;;;4971836;28;1967;-70
2023/01/06 00:49:06;;;;;;;;;;;18.40;66.70;;;;;;4971832;28;1635;-70
2023/01/06 00:51:33;;;;;;;;;;;18.40;66.70;;;;;;4971480;28;1259;-70
2023/01/06 00:53:59;;;;;;;;;;;18.40;66.70;;;;;;4970079;28;899;-70
2023/01/06 00:56:24;;;;;;;;;;;18.40;66.80;;;;;;4971855;28;937;-70
2023/01/06 00:58:50;;;;;;;;;;;18.40;66.80;;;;;;4971481;28;1066;-70
2023/01/06 01:01:15;;;;;;;;;;;18.50;66.80;;;;;;4971447;28;1366;-70
2023/01/06 01:03:41;;;;;;;;;;;18.40;66.80;;;;;;4970922;28;1311;-70
2023/01/06 01:06:07;;;;;;;;;;;18.40;66.80;;;;;;4971719;28;1898;-70
2023/01/06 01:08:32;;;;;;;;;;;18.40;66.80;;;;;;4970374;28;1068;-70
2023/01/06 01:11:02;;;;;;;;;;;18.40;66.80;;;;;;4969828;28;1297;-70
2023/01/06 01:13:27;;;;;;;;;;;18.40;66.80;;;;;;4969830;28;872;-70
2023/01/06 01:15:53;;;;;;;;;;;18.40;66.80;;;;;;4971160;28;887;-70
2023/01/06 01:18:18;;;;;;;;;;;18.40;66.90;;;;;;4971739;28;955;-70
2023/01/06 01:20:44;;;;;;;;;;;18.40;66.90;;;;;;4971478;28;1338;-70
2023/01/06 01:23:10;;;;;;;;;;;18.40;66.80;;;;;;4971759;28;1082;-70
2023/01/06 01:25:35;;;;;;;;;;;18.40;66.90;;;;;;4976658;28;1078;-70
2023/01/06 01:28:01;;;;;;;;;;;18.40;66.90;;;;;;4976281;28;1970;-70
2023/01/06 01:30:26;;;;;;;;;;;18.40;66.90;;;;;;4975976;28;901;-70
2023/01/06 01:32:51;;;;;;;;;;;18.40;66.90;;;;;;4975504;28;1351;-70
2023/01/06 01:35:17;;;;;;;;;;;18.40;66.90;;;;;;4975300;28;789;-70
2023/01/06 01:37:42;;;;;;;;;;;18.40;66.90;;;;;;4975310;28;880;-70
2023/01/06 01:40:09;;;;;;;;;;;18.40;66.90;;;;;;4974787;28;1336;-70
2023/01/06 01:42:34;;;;;;;;;;;18.40;66.90;;;;;;4975163;28;1329;-71
2023/01/06 01:45:01;;;;;;;;;;;18.30;66.90;;;;;;4975171;28;1246;-71
2023/01/06 01:47:35;;;;;;;;;;;18.40;67.00;;;;;;4975250;28;1906;-71
2023/01/06 01:50:11;;;;;;;;;;;18.30;66.90;;;;;;4974631;28;825;-71
2023/01/06 01:52:37;;;;;;;;;;;18.30;66.90;;;;;;4974584;28;1371;-71
2023/01/06 01:55:03;;;;;;;;;;;18.30;66.90;;;;;;4973386;28;1610;-71
2023/01/06 01:57:31;;;;;;;;;;;18.30;66.90;;;;;;4974993;28;1282;-71
2023/01/06 01:59:57;;;;;;;;;;;18.30;66.90;;;;;;4973520;28;1307;-71
2023/01/06 02:02:22;;;;;;;;;;;18.40;67.00;;;;;;4974870;28;1242;-70
2023/01/06 02:04:50;;;;;;;;;;;18.30;67.00;;;;;;4971648;28;1485;-71
2023/01/06 02:07:15;;;;;;;;;;;18.40;67.00;;;;;;4974366;28;1910;-71
2023/01/06 02:09:53;;;;;;;;;;;18.40;67.10;;;;;;4972927;28;1456;-71
2023/01/06 02:12:19;;;;;;;;;;;18.30;67.00;;;;;;4972121;28;1462;-71
2023/01/06 02:14:44;;;;;;;;;;;18.30;67.00;;;;;;4973987;28;1345;-72
2023/01/06 02:17:10;;;;;;;;;;;18.40;67.00;;;;;;4974454;28;1290;-72
2023/01/06 02:19:44;;;;;;;;;;;18.30;67.00;;;;;;4973917;28;1031;-73
2023/01/06 02:22:09;;;;;;;;;;;18.30;67.10;;;;;;4974244;28;1399;-72
2023/01/06 02:24:44;;;;;;;;;;;18.30;67.00;;;;;;4974233;28;1298;-71
2023/01/06 02:27:19;;;;;;;;;;;18.30;67.00;;;;;;4974138;28;1971;-70
2023/01/06 02:30:02;;;;;;;;;;;18.30;67.00;;;;;;4972743;28;1427;-69
2023/01/06 02:32:28;;;;;;;;;;;18.30;67.10;;;;;;4974704;28;1436;-70
2023/01/06 02:35:12;;;;;;;;;;;18.30;67.10;;;;;;4974472;28;959;-70
2023/01/06 02:37:56;;;;;;;;;;;18.30;67.10;;;;;;4974473;28;888;-70
2023/01/06 02:40:24;;;;;;;;;;;18.30;67.10;;;;;;4972877;28;1063;-70
2023/01/06 02:43:09;;;;;;;;;;;18.30;67.10;;;;;;4974447;28;1263;-70
2023/01/06 02:45:52;;;;;;;;;;;18.30;67.10;;;;;;4975766;28;1258;-70
2023/01/06 02:48:38;;;;;;;;;;;18.30;67.10;;;;;;4973943;28;1895;-70
2023/01/06 02:51:13;;;;;;;;;;;18.30;67.10;;;;;;4972713;28;1287;-70
2023/01/06 02:53:48;;;;;;;;;;;18.30;67.20;;;;;;4973086;28;813;-70
2023/01/06 02:56:13;;;;;;;;;;;18.30;67.10;;;;;;4974105;28;870;-70
2023/01/06 02:58:41;;;;;;;;;;;18.30;67.10;;;;;;4972831;28;908;-69
2023/01/06 03:01:17;;;;;;;;;;;18.30;67.20;;;;;;4972621;28;1279;-70
2023/01/06 03:03:43;;;;;;;;;;;18.30;67.20;;;;;;4973097;28;1324;-69
2023/01/06 03:06:12;;;;;;;;;;;18.30;67.20;;;;;;4973595;28;1910;-70
2023/01/06 03:08:37;;;;;;;;;;;18.30;67.20;;;;;;4972660;28;1085;-68
2023/01/06 03:11:02;;;;;;;;;;;18.30;67.30;;;;;;4972353;28;1292;-67
2023/01/06 03:13:34;;;;;;;;;;;18.30;67.20;;;;;;4972560;28;874;-68
2023/01/06 03:16:03;;;;;;;;;;;18.20;67.20;;;;;;4973639;28;988;-68
2023/01/06 03:18:28;;;;;;;;;;;18.30;67.30;;;;;;4972301;28;856;-68
2023/01/06 03:20:56;;;;;;;;;;;18.20;67.20;;;;;;4972098;28;1347;-68
2023/01/06 03:23:21;;;;;;;;;;;18.30;67.20;;;;;;4972464;28;934;-69
2023/01/06 03:25:47;;;;;;;;;;;18.20;67.20;;;;;;4972180;28;853;-71
2023/01/06 03:28:12;;;;;;;;;;;18.30;67.30;;;;;;4971958;28;1949;-71
2023/01/06 03:30:51;;;;;;;;;;;18.30;67.20;;;;;;4973238;28;1205;-71
2023/01/06 03:33:24;;;;;;;;;;;18.30;67.30;;;;;;4972545;28;827;-69
2023/01/06 03:36:00;;;;;;;;;;;18.30;67.30;;;;;;4971868;28;908;-69
2023/01/06 03:38:30;;;;;;;;;;;18.20;67.20;;;;;;4971000;28;1089;-68
2023/01/06 03:41:08;;;;;;;;;;;18.20;67.30;;;;;;4971647;28;1245;-69
2023/01/06 03:43:56;;;;;;;;;;;18.20;67.30;;;;;;4972893;28;1283;-69
2023/01/06 03:46:30;;;;;;;;;;;18.20;67.30;;;;;;4972615;28;1965;-69
2023/01/06 03:48:56;;;;;;;;;;;18.20;67.30;;;;;;4971203;28;897;-71
2023/01/06 03:52:00;;;;;;;;;;;18.20;67.30;;;;;;4972877;28;1274;-71
2023/01/06 03:54:44;;;;;;;;;;;18.20;67.30;;;;;;4946920;29;1213;-69
2023/01/06 03:57:30;;;;;;;;;;;18.20;67.30;;;;;;4946492;29;960;-69
2023/01/06 03:59:56;;;;;;;;;;;18.20;67.30;;;;;;4964476;28;1048;-70
2023/01/06 04:02:21;;;;;;;;;;;18.20;67.30;;;;;;4971774;28;1259;-71
2023/01/06 04:05:05;;;;;;;;;;;18.20;67.30;;;;;;4971987;28;1018;-71
2023/01/06 04:07:31;;;;;;;;;;;18.20;67.30;;;;;;4972735;28;1886;-70
2023/01/06 04:09:56;;;;;;;;;;;18.20;67.30;;;;;;4972271;28;1006;-70
2023/01/06 04:12:37;;;;;;;;;;;18.20;67.30;;;;;;4972488;28;1295;-70
2023/01/06 04:15:03;;;;;;;;;;;18.20;67.30;;;;;;4972183;28;982;-70
2023/01/06 04:17:29;;;;;;;;;;;18.20;67.40;;;;;;4971228;28;914;-71
2023/01/06 04:19:54;;;;;;;;;;;18.20;67.40;;;;;;4972046;28;832;-71
2023/01/06 04:22:20;;;;;;;;;;;18.20;67.40;;;;;;4972040;28;1400;-71
2023/01/06 04:24:45;;;;;;;;;;;18.20;67.40;;;;;;4970810;28;1062;-71
2023/01/06 04:27:10;;;;;;;;;;;18.20;67.40;;;;;;4972310;28;1974;-72
2023/01/06 04:29:36;;;;;;;;;;;18.20;67.40;;;;;;4972050;28;832;-72
2023/01/06 04:32:01;;;;;;;;;;;18.20;67.40;;;;;;4972258;28;1277;-72
2023/01/06 04:34:27;;;;;;;;;;;18.20;67.40;;;;;;4972476;28;897;-72
2023/01/06 04:36:52;;;;;;;;;;;18.20;67.40;;;;;;4972456;28;1206;-72
2023/01/06 04:39:18;;;;;;;;;;;18.20;67.40;;;;;;4971587;28;1364;-72
2023/01/06 04:41:43;;;;;;;;;;;18.20;67.50;;;;;;4970942;28;1200;-72
2023/01/06 04:44:09;;;;;;;;;;;18.20;67.40;;;;;;4972252;28;1266;-74
2023/01/06 04:46:34;;;;;;;;;;;18.20;67.40;;;;;;4969344;28;1966;-75
2023/01/06 04:49:00;;;;;;;;;;;18.20;67.50;;;;;;4971780;28;1884;-71
2023/01/06 04:51:25;;;;;;;;;;;18.20;67.40;;;;;;4972934;28;1442;-72
2023/01/06 04:53:51;;;;;;;;;;;18.20;67.50;;;;;;4974540;28;857;-74
2023/01/06 04:56:16;;;;;;;;;;;18.20;67.40;;;;;;4972855;28;875;-74
2023/01/06 04:58:41;;;;;;;;;;;18.20;67.50;;;;;;4972601;28;829;-74
2023/01/06 05:01:10;;;;;;;;;;;18.20;67.40;;;;;;4972719;28;1366;-71
2023/01/06 05:03:36;;;;;;;;;;;18.20;67.50;;;;;;4971530;28;1041;-71
2023/01/06 05:06:08;;;;;;;;;;;18.20;67.40;;;;;;4969443;28;875;-71
2023/01/06 05:08:34;;;;;;;;;;;18.20;67.50;;;;;;4971575;28;801;-71
2023/01/06 05:11:10;;;;;;;;;;;18.20;67.50;;;;;;4971847;28;1358;-71
2023/01/06 05:13:35;;;;;;;;;;;18.20;67.50;;;;;;4971292;28;1006;-73
2023/01/06 05:16:04;;;;;;;;;;;18.20;67.50;;;;;;4972541;28;894;-73
2023/01/06 05:18:29;;;;;;;;;;;18.10;67.40;;;;;;4970245;28;831;-73
2023/01/06 05:20:55;;;;;;;;;;;18.20;67.50;;;;;;4972364;28;1257;-73
2023/01/06 05:23:20;;;;;;;;;;;18.20;67.50;;;;;;4972142;28;884;-73
2023/01/06 05:25:46;;;;;;;;;;;18.20;67.50;;;;;;4970965;28;819;-73
2023/01/06 05:28:12;;;;;;;;;;;18.20;67.50;;;;;;4969480;28;1960;-73
2023/01/06 05:30:37;;;;;;;;;;;18.20;67.50;;;;;;4970724;28;1246;-74
2023/01/06 05:33:03;;;;;;;;;;;18.20;67.40;;;;;;4971216;28;838;-75
2023/01/06 05:35:28;;;;;;;;;;;18.20;67.30;;;;;;4954475;28;4308;-75
2023/01/06 05:37:53;;;;;;;;;;;18.20;67.20;;;;;;4970100;28;4571;-74
2023/01/06 05:40:19;;;;;;;;;;;18.30;67.10;;;;;;4971908;28;1404;-75
2023/01/06 05:42:44;;;;;;;;;;;18.30;67.00;;;;;;4973709;28;1295;-75
2023/01/06 05:45:10;;;;;;;;;;;18.40;66.90;;;;;;4973798;28;852;-75
2023/01/06 05:47:36;;;;;;;;;;;18.40;66.70;;;;;;4972114;28;1914;-72
2023/01/06 05:50:02;;;;;;;;;;;18.40;66.60;;;;;;4973088;28;928;-72
2023/01/06 05:52:27;;;;;;;;;;;18.50;66.50;;;;;;4972770;28;1718;-73
2023/01/06 05:54:52;;;;;;;;;;;18.50;66.40;;;;;;4972358;28;877;-75
2023/01/06 05:57:18;;;;;;;;;;;18.50;66.30;;;;;;4971938;28;1046;-73
2023/01/06 05:59:43;;;;;;;;;;;18.50;66.10;;;;;;4970858;28;1007;-72
2023/01/06 06:02:09;;;;;;;;;;;18.50;66.00;;;;;;4971012;28;1366;-73
2023/01/06 06:04:34;;;;;;;;;;;18.60;66.70;;;;;;4971073;28;1013;-70
2023/01/06 06:07:00;;;;;;;;;;;18.60;65.90;;;;;;4985892;28;1967;-71
2023/01/06 06:09:25;;;;;;;;;;;18.60;65.80;;;;;;4971712;28;1324;-70
2023/01/06 06:11:52;;;;;;;;;;;18.60;65.70;;;;;;4974686;28;1360;-74
2023/01/06 06:14:18;;;;;;;;;;;18.60;65.70;;;;;;4973663;28;1082;-72
2023/01/06 06:16:43;;;;;;;;;;;18.60;65.60;;;;;;4974061;28;874;-72
2023/01/06 06:19:10;;;;;;;;;;;18.70;65.60;;;;;;4970491;28;1305;-71
2023/01/06 06:21:35;;;;;;;;;;;18.70;65.60;;;;;;4974872;28;1261;-72
2023/01/06 06:24:01;;;;;;;;;;;18.70;65.50;;;;;;4973856;28;824;-72
2023/01/06 06:26:26;;;;;;;;;;;18.70;65.50;;;;;;4974607;28;1890;-70
2023/01/06 06:28:52;;;;;;;;;;;18.70;65.40;;;;;;4973092;28;1074;-73
2023/01/06 06:31:27;;;;;;;;;;;18.70;65.40;;;;;;4974328;28;1208;-72
2023/01/06 06:33:53;;;;;;;;;;;18.70;65.40;;;;;;4974246;28;1021;-69
2023/01/06 06:36:18;;;;;;;;;;;18.70;65.30;;;;;;4974436;28;903;-70
2023/01/06 06:38:44;;;;;;;;;;;18.70;65.20;;;;;;4974250;28;1287;-70
2023/01/06 06:41:09;;;;;;;;;;;18.70;65.20;;;;;;4974325;28;1502;-70
2023/01/06 06:43:35;;;;;;;;;;;18.80;65.30;;;;;;4974625;28;1354;-71
2023/01/06 06:46:00;;;;;;;;;;;18.80;65.20;;;;;;4974311;28;1010;-71
2023/01/06 06:48:29;;;;;;;;;;;18.80;65.20;;;;;;4973964;28;1967;-72
2023/01/06 06:50:58;;;;;;;;;;;18.80;65.20;;;;;;4973598;28;1292;-73
2023/01/06 06:53:23;;;;;;;;;;;18.80;65.20;;;;;;4972803;28;1030;-72
2023/01/06 06:55:49;;;;;;;;;;;18.80;65.20;;;;;;4973217;28;835;-70
2023/01/06 06:58:14;;;;;;;;;;;18.80;65.10;;;;;;4976999;28;1165;-71
2023/01/06 07:00:40;;;;;;;;;;;18.70;65.10;;;;;;4973663;28;1377;-75
2023/01/06 07:03:05;;;;;;;;;;;18.80;65.10;;;;;;4973465;28;924;-74
2023/01/06 07:05:30;;;;;;;;;;;18.80;65.20;;;;;;4975300;28;1292;-72
2023/01/06 07:07:56;;;;;;;;;;;18.80;65.10;;;;;;4974900;28;1918;-71
2023/01/06 07:10:21;;;;;;;;;;;18.80;65.20;;;;;;4973923;28;960;-72
2023/01/06 07:12:47;;;;;;;;;;;18.80;65.10;;;;;;4973195;28;1326;-70
2023/01/06 07:15:12;;;;;;;;;;;18.80;65.20;;;;;;4972197;28;1015;-69
2023/01/06 07:17:38;;;;;;;;;;;18.70;65.10;;;;;;4973327;28;880;-70
2023/01/06 07:20:04;;;;;;;;;;;18.80;65.20;;;;;;4971683;28;888;-71
2023/01/06 07:22:29;;;;;;;;;;;18.70;65.10;;;;;;4973259;28;1255;-70
2023/01/06 07:24:55;;;;;;;;;;;18.80;65.30;;;;;;4973719;28;935;-73
2023/01/06 07:27:20;;;;;;;;;;;18.80;65.20;;;;;;4971956;28;1903;-73
2023/01/06 07:29:46;;;;;;;;;;;18.80;65.30;;;;;;4973008;28;835;-74
2023/01/06 07:32:11;;;;;;;;;;;18.70;65.20;;;;;;4973073;28;1330;-71
2023/01/06 07:34:37;;;;;;;;;;;18.80;65.30;;;;;;4973220;28;1055;-69
2023/01/06 07:37:02;;;;;;;;;;;18.80;65.50;;;;;;4973133;28;1299;-70
2023/01/06 07:39:27;;;;;;;;;;;18.80;65.50;;;;;;4972915;28;1289;-71
2023/01/06 07:41:53;;;;;;;;;;;18.70;65.30;;;;;;4973274;28;1379;-74
2023/01/06 07:44:18;;;;;;;;;;;18.70;65.30;;;;;;4973513;28;1395;-72
2023/01/06 07:46:44;;;;;;;;;;;18.70;65.30;;;;;;4972487;28;1906;-72
2023/01/06 07:49:09;;;;;;;;;;;18.70;65.40;;;;;;4972895;28;781;-76
2023/01/06 07:51:35;;;;;;;;;;;18.70;66.10;;;;;;4973952;28;1341;-72
2023/01/06 07:54:00;;;;;;;;;;;18.70;65.40;;;;;;4972570;28;1023;-72
2023/01/06 07:56:26;;;;;;;;;;;18.70;65.50;;;;;;4972759;28;880;-71
2023/01/06 07:58:53;;;;;;;;;;;18.70;65.50;;;;;;4972677;28;1221;-74
2023/01/06 08:01:19;;;;;;;;;;;18.70;65.50;;;;;;4972157;28;1336;-70
2023/01/06 08:03:44;;;;;;;;;;;18.70;65.60;;;;;;4972947;28;1403;-70
2023/01/06 08:06:10;;;;;;;;;;;18.70;65.60;;;;;;4972627;28;892;-70
2023/01/06 08:08:36;;;;;;;;;;;18.70;65.60;;;;;;4971307;28;1970;-70
2023/01/06 08:11:01;;;;;;;;;;;18.70;65.60;;;;;;4970893;28;1306;-70
2023/01/06 08:13:27;;;;;;;;;;;18.60;65.60;;;;;;4972399;28;864;-70
2023/01/06 08:15:52;;;;;;;;;;;18.60;65.60;;;;;;4972092;28;809;-70
2023/01/06 08:18:18;;;;;;;;;;;18.60;65.60;;;;;;4972408;28;935;-70
2023/01/06 08:20:43;;;;;;;;;;;18.60;65.60;;;;;;4971916;28;1245;-71
2023/01/06 08:23:09;;;;;;;;;;;18.60;65.70;;;;;;4970725;28;1222;-71
2023/01/06 08:25:34;;;;;;;;;;;18.60;65.70;;;;;;4972366;28;880;-73
2023/01/06 08:28:00;;;;;;;;;;;18.60;65.70;;;;;;4987176;28;1942;-73
2023/01/06 08:30:25;;;;;;;;;;;18.60;65.70;;;;;;4972186;28;854;-71
2023/01/06 08:32:51;;;;;;;;;;;18.60;65.70;;;;;;4972341;28;1304;-71
2023/01/06 08:35:16;;;;;;;;;;;18.60;65.80;;;;;;4973369;28;868;-71
2023/01/06 08:37:41;;;;;;;;;;;18.60;65.80;;;;;;4972143;28;825;-73
2023/01/06 08:40:07;;;;;;;;;;;18.60;65.80;;;;;;4970699;28;1298;-72
2023/01/06 08:42:33;;;;;;;;;;;18.60;65.80;;;;;;4972521;28;1289;-72
2023/01/06 08:44:58;;;;;;;;;;;18.60;65.80;;;;;;4971955;28;958;-72
2023/01/06 08:47:23;;;;;;;;;;;18.60;65.80;;;;;;4971785;28;1946;-70
2023/01/06 08:49:49;;;;;;;;;;;18.60;65.80;;;;;;4971897;28;886;-71
2023/01/06 08:52:14;;;;;;;;;;;18.60;65.80;;;;;;4971158;28;1354;-72
2023/01/06 08:54:40;;;;;;;;;;;18.60;65.80;;;;;;4971648;28;1023;-72
2023/01/06 08:57:07;;;;;;;;;;;18.60;65.70;;;;;;4971906;28;873;-72
2023/01/06 08:59:32;;;;;;;;;;;18.60;65.70;;;;;;4970135;28;939;-72
2023/01/06 09:01:58;;;;;;;;;;;18.60;65.70;;;;;;4971483;28;1266;-72
2023/01/06 09:04:23;;;;;;;;;;;18.60;65.60;;;;;;4972055;28;902;-72
2023/01/06 09:06:49;;;;;;;;;;;18.60;65.60;;;;;;4971774;28;1891;-71
2023/01/06 09:09:14;;;;;;;;;;;18.60;65.60;;;;;;4970805;28;2040;-71
2023/01/06 09:11:43;;;;;;;;;;;18.70;65.60;;;;;;4969571;28;2016;-72
2023/01/06 09:14:09;;;;;;;;;;;18.70;65.60;;;;;;4968681;28;1400;-73
2023/01/06 09:16:34;;;;;;;;;;;18.70;65.50;;;;;;4970154;28;1081;-72
2023/01/06 09:19:00;;;;;;;;;;;18.70;65.50;;;;;;4969241;28;893;-74
2023/01/06 09:21:25;;;;;;;;;;;18.70;65.50;;;;;;4969999;28;1260;-73
2023/01/06 09:23:51;;;;;;;;;;;18.70;65.50;;;;;;4976013;28;1643;-74
2023/01/06 09:26:16;;;;;;;;;;;18.70;65.40;;;;;;4970362;28;857;-73
2023/01/06 09:28:42;;;;;;;;;;;18.70;65.30;;;;;;4970683;28;794;-72
2023/01/06 09:31:08;;;;;;;;;;;18.70;65.30;;;;;;4971588;28;1260;-73
2023/01/06 09:33:33;;;;;;;;;;;18.70;65.30;;;;;;4949336;28;1520;-72
2023/01/06 09:35:59;;;;;;;;;;;18.70;65.20;;;;;;4971376;28;819;-72
2023/01/06 09:38:25;;;;;;;;;;;18.70;65.20;;;;;;4971397;28;1541;-72
2023/01/06 09:40:55;;;;;;;;;;;18.80;65.20;;;;;;4971140;28;1253;-72
2023/01/06 09:43:20;;;;;;;;;;;18.80;65.30;;;;;;4969628;28;934;-72
2023/01/06 09:45:47;;;;;;;;;;;18.70;65.20;;;;;;4975513;28;1311;-72
2023/01/06 09:48:14;;;;;;;;;;;18.70;65.10;;;;;;4973268;28;1906;-72
2023/01/06 09:50:40;;;;;;;;;;;18.70;65.10;;;;;;4974492;28;1264;-71
2023/01/06 09:53:10;;;;;;;;;;;18.80;65.10;;;;;;4973709;28;885;-71
2023/01/06 09:55:35;;;;;;;;;;;18.80;65.10;;;;;;4975888;28;919;-72
2023/01/06 09:58:05;;;;;;;;;;;18.80;65.10;;;;;;4976049;28;1299;-73
2023/01/06 10:00:35;;;;;;;;;;;18.80;65.10;;;;;;4973093;28;1184;-72
2023/01/06 10:03:00;;;;;;;;;;;18.70;65.00;;;;;;4974249;28;1343;-74
2023/01/06 10:05:35;;;;;;;;;;;18.80;65.10;;;;;;4975327;28;822;-74
2023/01/06 10:08:02;;;;;;;;;;;18.80;65.10;;;;;;4974713;28;1959;-74
2023/01/06 10:10:46;;;;;;;;;;;18.80;65.00;;;;;;4974946;28;1048;-75
2023/01/06 10:13:24;;;;;;;;;;;18.80;65.00;;;;;;4975621;28;789;-75
2023/01/06 10:16:09;;;;;;;;;;;18.80;65.10;;;;;;4976340;28;812;-74
2023/01/06 10:18:41;;;;;;;;;;;18.70;65.70;;;;;;4973702;28;781;-74
2023/01/06 10:21:26;;;;;;;;;;;18.80;65.10;;;;;;4973522;28;1236;-74
2023/01/06 10:24:18;;;;;;;;;;;18.80;65.10;;;;;;4975354;28;1090;-74
2023/01/06 10:26:44;;;;;;;;;;;18.80;65.10;;;;;;4973226;28;1906;-74
2023/01/06 10:29:19;;;;;;;;;;;18.80;65.10;;;;;;4972919;28;896;-74
2023/01/06 10:31:45;;;;;;;;;;;18.70;65.10;;;;;;4974206;28;1311;-74
2023/01/06 10:34:21;;;;;;;;;;;18.80;65.10;;;;;;4974399;28;832;-74
2023/01/06 10:36:47;;;;;;;;;;;18.70;65.10;;;;;;4970162;28;1263;-73
2023/01/06 10:39:14;;;;;;;;;;;18.70;65.10;;;;;;4972616;28;947;-73
2023/01/06 10:42:54;;;;;;;;;;;18.70;65.90;;;;;;4972235;28;1366;-74
2023/01/06 10:44:44;;;;;;;;;;;18.70;65.20;;;;;;4975450;28;1337;-73
2023/01/06 10:47:29;;;;;;;;;;;18.70;65.20;;;;;;4973037;28;1911;-74
2023/01/06 10:49:54;;;;;;;;;;;18.70;65.30;;;;;;4972999;28;895;-74
2023/01/06 10:52:20;;;;;;;;;;;18.70;65.30;;;;;;4972712;28;1266;-74
2023/01/06 10:54:45;;;;;;;;;;;18.70;65.40;;;;;;4972463;28;912;-73
2023/01/06 10:57:13;;;;;;;;;;;18.70;65.40;;;;;;4973322;28;881;-74
2023/01/06 10:59:57;;;;;;;;;;;18.70;65.40;;;;;;4972125;28;978;-74
2023/01/06 11:02:23;;;;;;;;;;;18.70;65.40;;;;;;4973788;28;1355;-74
2023/01/06 11:04:51;;;;;;;;;;;18.70;65.50;;;;;;4973979;28;1293;-74
2023/01/06 11:07:17;;;;;;;;;;;18.70;65.50;;;;;;4975237;28;1882;-74
2023/01/06 11:09:43;;;;;;;;;;;18.60;65.50;;;;;;4970987;28;1440;-74
2023/01/06 11:12:11;;;;;;;;;;;18.60;65.50;;;;;;4975511;28;1256;-73
2023/01/06 11:14:36;;;;;;;;;;;18.60;65.50;;;;;;4973858;28;995;-74
2023/01/06 11:17:03;;;;;;;;;;;18.60;65.50;;;;;;4974943;28;868;-75
2023/01/06 11:19:35;;;;;;;;;;;18.60;65.60;;;;;;4972306;28;884;-74
2023/01/06 11:22:01;;;;;;;;;;;18.60;65.60;;;;;;4974544;28;1280;-74
2023/01/06 11:24:27;;;;;;;;;;;18.60;65.60;;;;;;4974458;28;865;-75
2023/01/06 11:27:13;;;;;;;;;;;18.60;65.60;;;;;;4973029;28;1962;-74
2023/01/06 11:29:38;;;;;;;;;;;18.60;65.70;;;;;;4973961;28;821;-74
2023/01/06 11:32:10;;;;;;;;;;;18.60;65.70;;;;;;4974577;28;1385;-74
2023/01/06 11:34:36;;;;;;;;;;;18.60;65.80;;;;;;4973645;28;865;-74
2023/01/06 11:37:01;;;;;;;;;;;18.60;65.80;;;;;;4974232;28;1001;-74
2023/01/06 11:39:28;;;;;;;;;;;18.60;65.80;;;;;;4973698;28;936;-75
2023/01/06 11:41:54;;;;;;;;;;;18.50;65.70;;;;;;4973657;28;1276;-74
2023/01/06 11:44:33;;;;;;;;;;;18.50;65.70;;;;;;4974420;28;1020;-74
2023/01/06 11:47:03;;;;;;;;;;;18.50;65.80;;;;;;4954087;28;1956;-74
2023/01/06 11:49:28;;;;;;;;;;;18.50;65.80;;;;;;4972240;28;955;-74
2023/01/06 11:52:01;;;;;;;;;;;18.50;65.80;;;;;;4974576;28;1255;-74
2023/01/06 11:54:31;;;;;;;;;;;18.50;65.90;;;;;;4971210;28;851;-74
2023/01/06 11:57:00;;;;;;;;;;;18.50;65.90;;;;;;4971244;28;1023;-74
2023/01/06 11:59:26;;;;;;;;;;;18.50;65.90;;;;;;4971141;28;931;-74
2023/01/06 12:01:56;;;;;;;;;;;18.50;66.00;;;;;;4971768;28;1262;-74
2023/01/06 12:04:22;;;;;;;;;;;18.50;66.00;;;;;;4970662;28;903;-74
2023/01/06 12:06:47;;;;;;;;;;;18.50;66.00;;;;;;4972163;28;1894;-74
2023/01/06 12:09:21;;;;;;;;;;;18.50;66.00;;;;;;4954497;28;1386;-75
2023/01/06 12:11:48;;;;;;;;;;;18.50;66.10;;;;;;4970717;28;1821;-74
2023/01/06 12:14:14;;;;;;;;;;;18.50;66.10;;;;;;4971127;28;2118;-73
2023/01/06 12:16:47;;;;;;;;;;;18.50;66.10;;;;;;4972650;28;912;-72
2023/01/06 12:19:14;;;;;;;;;;;18.50;66.10;;;;;;4970331;28;978;-72
2023/01/06 12:21:39;;;;;;;;;;;18.50;66.10;;;;;;4970852;28;1651;-72
2023/01/06 12:24:05;;;;;;;;;;;18.50;66.00;;;;;;4954945;28;1026;-72
2023/01/06 12:26:30;;;;;;;;;;;18.50;65.90;;;;;;4972525;28;1954;-73
2023/01/06 12:28:56;;;;;;;;;;;18.60;65.90;;;;;;4970669;28;876;-74
2023/01/06 12:31:29;;;;;;;;;;;18.60;65.80;;;;;;4970743;28;1362;-74
2023/01/06 12:33:55;;;;;;;;;;;18.60;65.70;;;;;;4970853;28;907;-73
2023/01/06 12:36:20;;;;;;;;;;;18.60;65.60;;;;;;4972197;28;955;-73
2023/01/06 12:38:49;;;;;;;;;;;18.60;65.50;;;;;;4971848;28;907;-73
2023/01/06 12:41:22;;;;;;;;;;;18.70;65.50;;;;;;4971470;28;1358;-73
2023/01/06 12:44:10;;;;;;;;;;;18.70;65.40;;;;;;4970551;28;1451;-72
2023/01/06 12:46:41;;;;;;;;;;;18.70;65.30;;;;;;4970699;28;1926;-73
2023/01/06 12:49:21;;;;;;;;;;;18.70;65.30;;;;;;4969248;28;861;-73
2023/01/06 12:51:49;;;;;;;;;;;18.70;65.10;;;;;;4971320;28;1317;-73
2023/01/06 12:54:14;;;;;;;;;;;18.80;65.20;;;;;;4971842;28;892;-74
2023/01/06 12:56:56;;;;;;;;;;;18.80;65.10;;;;;;4971931;28;891;-72
2023/01/06 12:59:34;;;;;;;;;;;18.70;65.00;;;;;;4952878;28;1376;-72
2023/01/06 13:02:10;;;;;;;;;;;18.80;65.00;;;;;;4971284;28;1281;-72
2023/01/06 13:04:41;;;;;;;;;;;18.80;65.00;;;;;;4969886;28;1424;-72
2023/01/06 13:07:07;;;;;;;;;;;18.80;65.00;;;;;;4971826;28;1895;-70
2023/01/06 13:09:51;;;;;;;;;;;18.80;64.90;;;;;;4971165;28;1590;-70
2023/01/06 13:12:35;;;;;;;;;;;18.80;64.90;;;;;;4971102;28;1298;-70
2023/01/06 13:15:13;;;;;;;;;;;18.80;64.90;;;;;;4971594;28;837;-70
2023/01/06 13:17:44;;;;;;;;;;;18.80;64.90;;;;;;4969345;28;833;-70
2023/01/06 13:20:15;;;;;;;;;;;18.80;64.80;;;;;;4969791;28;880;-70
2023/01/06 13:22:40;;;;;;;;;;;18.80;64.80;;;;;;4971373;28;1272;-70
2023/01/06 13:25:24;;;;;;;;;;;18.80;64.80;;;;;;4971335;28;872;-74
2023/01/06 13:27:50;;;;;;;;;;;18.80;64.80;;;;;;4970976;28;1894;-73
2023/01/06 13:30:19;;;;;;;;;;;18.80;64.80;;;;;;4971208;28;812;-74
2023/01/06 13:33:03;;;;;;;;;;;18.80;64.80;;;;;;4970073;28;1279;-72
2023/01/06 13:35:34;;;;;;;;;;;18.80;64.80;;;;;;4956258;28;4247;-73
2023/01/06 13:38:04;;;;;;;;;;;18.80;64.70;;;;;;4969937;28;1303;-72
2023/01/06 13:40:29;;;;;;;;;;;18.80;64.80;;;;;;4969817;28;1106;-72
2023/01/06 13:42:54;;;;;;;;;;;18.90;64.80;;;;;;4970190;28;1311;-72
2023/01/06 13:45:21;;;;;;;;;;;18.90;64.80;;;;;;4971469;28;1268;-71
2023/01/06 13:47:47;;;;;;;;;;;18.80;64.70;;;;;;4970655;28;1906;-71
2023/01/06 13:50:13;;;;;;;;;;;18.80;64.70;;;;;;4969860;28;806;-71
2023/01/06 13:52:38;;;;;;;;;;;18.80;64.70;;;;;;4969849;28;1943;-72
2023/01/06 13:55:22;;;;;;;;;;;18.80;64.70;;;;;;4971336;28;858;-72
2023/01/06 13:57:48;;;;;;;;;;;18.80;64.70;;;;;;4971108;28;884;-72
2023/01/06 14:00:17;;;;;;;;;;;18.80;64.70;;;;;;4971511;28;880;-72
2023/01/06 14:02:43;;;;;;;;;;;18.80;64.80;;;;;;4971414;28;1352;-72
2023/01/06 14:05:21;;;;;;;;;;;18.80;64.80;;;;;;4972049;28;1292;-72
2023/01/06 14:07:50;;;;;;;;;;;18.80;64.80;;;;;;4971411;28;1966;-71
2023/01/06 14:10:25;;;;;;;;;;;18.80;64.80;;;;;;4971027;28;813;-71
2023/01/06 14:12:50;;;;;;;;;;;18.80;64.80;;;;;;4971473;28;1597;-70
2023/01/06 14:15:18;;;;;;;;;;;18.80;64.90;;;;;;4970662;28;966;-70
2023/01/06 14:17:45;;;;;;;;;;;18.80;64.90;;;;;;4969676;28;927;-71
2023/01/06 14:20:20;;;;;;;;;;;18.80;64.90;;;;;;4973887;28;844;-72
2023/01/06 14:22:56;;;;;;;;;;;18.80;65.00;;;;;;4968375;28;1273;-72
2023/01/06 14:25:21;;;;;;;;;;;18.80;65.00;;;;;;4970020;28;904;-72
2023/01/06 14:27:47;;;;;;;;;;;18.70;65.00;;;;;;4968354;28;1964;-72
2023/01/06 14:30:19;;;;;;;;;;;18.80;65.00;;;;;;4970746;28;850;-72
2023/01/06 14:32:56;;;;;;;;;;;18.80;65.80;;;;;;4974469;28;1779;-71
2023/01/06 14:35:25;;;;;;;;;;;18.70;65.10;;;;;;4973191;28;1278;-72
2023/01/06 14:37:52;;;;;;;;;;;18.80;65.10;;;;;;4973339;28;1070;-73
2023/01/06 14:40:23;;;;;;;;;;;18.70;65.10;;;;;;4973024;28;1433;-71
2023/01/06 14:42:49;;;;;;;;;;;18.70;65.20;;;;;;4973396;28;1265;-73